sensor_id;sensor_type;location;lat;lon;timestamp;pressure;altitude;pressure_sealevel;temperature;humidity
69027;BME280;56080;47.594;19.116;2023-02-22T00:02:31;100220;;;9.70;71.86
69027;BME280;56080;47.594;19.116;2023-02-22T00:12:31;100216;;;9.66;72.50
69027;BME280;56080;47.594;19.116;2023-02-22T00:22:32;100212;;;9.65;72.72
69027;BME280;56080;47.594;19.116;2023-02-22T00:32:33;100211;;;9.70;72.88
69027;BME280;56080;47.594;19.116;2023-02-22T00:42:33;100217;;;9.68;72.85
69027;BME280;56080;47.594;19.116;2023-02-22T00:52:35;100222;;;9.84;72.86
69027;BME280;56080;47.594;19.116;2023-02-22T01:02:36;100212;;;9.89;72.70
69027;BME280;56080;47.594;19.116;2023-02-22T01:12:36;100212;;;10.03;72.57
69027;BME280;56080;47.594;19.116;2023-02-22T01:22:40;100209;;;10.17;72.04
69027;BME280;56080;47.594;19.116;2023-02-22T01:32:38;100212;;;10.16;72.01
69027;BME280;56080;47.594;19.116;2023-02-22T01:42:38;100206;;;10.26;71.79
69027;BME280;56080;47.594;19.116;2023-02-22T01:52:39;100210;;;10.29;71.71
69027;BME280;56080;47.594;19.116;2023-02-22T02:02:41;100207;;;10.30;71.70
69027;BME280;56080;47.594;19.116;2023-02-22T02:22:46;100196;;;10.17;72.44
69027;BME280;56080;47.594;19.116;2023-02-22T02:42:50;100195;;;9.82;73.63
69027;BME280;56080;47.594;19.116;2023-02-22T02:52:45;100196;;;9.71;74.32
69027;BME280;56080;47.594;19.116;2023-02-22T03:02:50;100203;;;9.69;74.36
69027;BME280;56080;47.594;19.116;2023-02-22T03:32:50;100210;;;8.92;76.82
69027;BME280;56080;47.594;19.116;2023-02-22T03:42:49;100209;;;9.12;76.89
69027;BME280;56080;47.594;19.116;2023-02-22T03:52:50;100221;;;9.01;77.31
69027;BME280;56080;47.594;19.116;2023-02-22T04:02:50;100227;;;8.92;77.95
69027;BME280;56080;47.594;19.116;2023-02-22T04:12:51;100226;;;8.95;78.03
69027;BME280;56080;47.594;19.116;2023-02-22T04:22:52;100230;;;8.73;78.67
69027;BME280;56080;47.594;19.116;2023-02-22T04:32:52;100229;;;8.86;78.81
69027;BME280;56080;47.594;19.116;2023-02-22T04:42:53;100225;;;8.69;78.71
69027;BME280;56080;47.594;19.116;2023-02-22T04:52:55;100220;;;8.49;79.33
69027;BME280;56080;47.594;19.116;2023-02-22T05:02:54;100240;;;7.98;80.75
69027;BME280;56080;47.594;19.116;2023-02-22T05:12:55;100248;;;8.13;81.64
69027;BME280;56080;47.594;19.116;2023-02-22T05:22:56;100248;;;7.94;81.43
69027;BME280;56080;47.594;19.116;2023-02-22T05:32:58;100251;;;7.87;82.71
69027;BME280;56080;47.594;19.116;2023-02-22T05:42:57;100262;;;7.99;82.50
69027;BME280;56080;47.594;19.116;2023-02-22T05:52:58;100287;;;7.48;81.79
69027;BME280;56080;47.594;19.116;2023-02-22T06:03:00;100311;;;7.16;83.62
69027;BME280;56080;47.594;19.116;2023-02-22T06:12:59;100312;;;7.47;84.07
69027;BME280;56080;47.594;19.116;2023-02-22T06:23:00;100323;;;7.47;83.54
69027;BME280;56080;47.594;19.116;2023-02-22T06:33:00;100321;;;7.71;82.87
69027;BME280;56080;47.594;19.116;2023-02-22T06:43:01;100333;;;7.97;82.22
69027;BME280;56080;47.594;19.116;2023-02-22T06:53:01;100332;;;8.26;82.23
69027;BME280;56080;47.594;19.116;2023-02-22T07:13:03;100337;;;8.83;81.35
69027;BME280;56080;47.594;19.116;2023-02-22T07:23:04;100335;;;9.13;80.63
69027;BME280;56080;47.594;19.116;2023-02-22T07:33:05;100330;;;9.34;79.73
69027;BME280;56080;47.594;19.116;2023-02-22T07:53:09;100337;;;9.97;78.18
69027;BME280;56080;47.594;19.116;2023-02-22T08:03:07;100341;;;10.61;75.40
69027;BME280;56080;47.594;19.116;2023-02-22T08:13:08;100342;;;12.13;70.00
69027;BME280;56080;47.594;19.116;2023-02-22T08:23:09;100341;;;13.99;63.24
69027;BME280;56080;47.594;19.116;2023-02-22T08:33:13;100345;;;13.97;62.02
69027;BME280;56080;47.594;19.116;2023-02-22T08:43:12;100347;;;14.11;60.18
69027;BME280;56080;47.594;19.116;2023-02-22T08:53:13;100354;;;12.87;63.90
69027;BME280;56080;47.594;19.116;2023-02-22T09:03:13;100355;;;12.57;65.42
69027;BME280;56080;47.594;19.116;2023-02-22T09:13:15;100353;;;12.09;67.34
69027;BME280;56080;47.594;19.116;2023-02-22T09:23:16;100349;;;12.42;67.11
69027;BME280;56080;47.594;19.116;2023-02-22T09:33:18;100350;;;12.37;67.04
69027;BME280;56080;47.594;19.116;2023-02-22T10:03:24;100337;;;13.37;63.99
69027;BME280;56080;47.594;19.116;2023-02-22T10:33:29;100322;;;12.94;64.29
69027;BME280;56080;47.594;19.116;2023-02-22T10:43:24;100316;;;12.72;65.09
69027;BME280;56080;47.594;19.116;2023-02-22T11:03:26;100299;;;12.68;65.08
69027;BME280;56080;47.594;19.116;2023-02-22T11:13:28;100288;;;12.76;64.53
69027;BME280;56080;47.594;19.116;2023-02-22T11:23:27;100283;;;12.92;63.89
69027;BME280;56080;47.594;19.116;2023-02-22T11:33:29;100278;;;12.96;63.54
69027;BME280;56080;47.594;19.116;2023-02-22T11:43:30;100276;;;12.96;63.42
69027;BME280;56080;47.594;19.116;2023-02-22T11:53:37;100269;;;12.99;63.17
69027;BME280;56080;47.594;19.116;2023-02-22T12:13:36;100261;;;12.94;64.11
69027;BME280;56080;47.594;19.116;2023-02-22T12:33:39;100255;;;12.38;66.28
69027;BME280;56080;47.594;19.116;2023-02-22T12:43:38;100241;;;12.44;66.15
69027;BME280;56080;47.594;19.116;2023-02-22T12:53:37;100235;;;12.37;66.11
69027;BME280;56080;47.594;19.116;2023-02-22T13:13:41;100227;;;12.37;65.76
69027;BME280;56080;47.594;19.116;2023-02-22T13:54:00;100220;;;12.43;65.90
69027;BME280;56080;47.594;19.116;2023-02-22T14:03:42;100221;;;12.53;65.60
69027;BME280;56080;47.594;19.116;2023-02-22T14:23:45;100212;;;12.61;64.84
69027;BME280;56080;47.594;19.116;2023-02-22T14:43:45;100218;;;12.51;65.27
69027;BME280;56080;47.594;19.116;2023-02-22T15:03:58;100214;;;12.39;65.94
69027;BME280;56080;47.594;19.116;2023-02-22T15:13:49;100208;;;12.22;66.69
69027;BME280;56080;47.594;19.116;2023-02-22T15:23:50;100211;;;12.19;67.21
69027;BME280;56080;47.594;19.116;2023-02-22T15:33:52;100209;;;12.08;68.44
69027;BME280;56080;47.594;19.116;2023-02-22T15:44:07;100209;;;12.05;68.72
69027;BME280;56080;47.594;19.116;2023-02-22T15:53:52;100209;;;11.89;66.81
69027;BME280;56080;47.594;19.116;2023-02-22T16:03:55;100200;;;11.97;66.27
69027;BME280;56080;47.594;19.116;2023-02-22T16:13:56;100206;;;11.83;66.74
69027;BME280;56080;47.594;19.116;2023-02-22T16:24:07;100209;;;11.62;65.49
69027;BME280;56080;47.594;19.116;2023-02-22T16:33:56;100219;;;11.48;64.68
69027;BME280;56080;47.594;19.116;2023-02-22T16:43:58;100227;;;11.67;63.65
69027;BME280;56080;47.594;19.116;2023-02-22T16:53:58;100236;;;11.59;63.06
69027;BME280;56080;47.594;19.116;2023-02-22T17:04:01;100239;;;11.41;62.80
69027;BME280;56080;47.594;19.116;2023-02-22T17:14:00;100246;;;11.41;62.80
69027;BME280;56080;47.594;19.116;2023-02-22T17:24:03;100241;;;11.27;62.96
69027;BME280;56080;47.594;19.116;2023-02-22T17:34:02;100242;;;10.93;63.60
69027;BME280;56080;47.594;19.116;2023-02-22T17:44:03;100240;;;10.93;63.45
69027;BME280;56080;47.594;19.116;2023-02-22T17:54:03;100247;;;11.07;63.94
69027;BME280;56080;47.594;19.116;2023-02-22T18:04:06;100247;;;10.96;64.20
69027;BME280;56080;47.594;19.116;2023-02-22T18:14:07;100241;;;10.84;64.56
69027;BME280;56080;47.594;19.116;2023-02-22T18:24:06;100243;;;10.65;65.05
69027;BME280;56080;47.594;19.116;2023-02-22T18:34:07;100240;;;10.53;65.61
69027;BME280;56080;47.594;19.116;2023-02-22T18:44:10;100242;;;10.38;66.62
69027;BME280;56080;47.594;19.116;2023-02-22T18:54:13;100241;;;10.18;66.82
69027;BME280;56080;47.594;19.116;2023-02-22T19:04:11;100251;;;9.90;67.15
69027;BME280;56080;47.594;19.116;2023-02-22T19:14:11;100252;;;9.80;68.43
69027;BME280;56080;47.594;19.116;2023-02-22T19:24:12;100253;;;9.47;69.79
69027;BME280;56080;47.594;19.116;2023-02-22T19:34:14;100253;;;9.64;68.97
69027;BME280;56080;47.594;19.116;2023-02-22T19:44:13;100262;;;9.67;68.53
69027;BME280;56080;47.594;19.116;2023-02-22T19:54:18;100266;;;9.67;68.76
69027;BME280;56080;47.594;19.116;2023-02-22T20:04:18;100273;;;9.46;69.56
69027;BME280;56080;47.594;19.116;2023-02-22T20:14:18;100276;;;9.51;68.47
69027;BME280;56080;47.594;19.116;2023-02-22T20:24:18;100272;;;9.32;67.39
69027;BME280;56080;47.594;19.116;2023-02-22T20:34:18;100272;;;9.38;66.76
69027;BME280;56080;47.594;19.116;2023-02-22T20:44:20;100280;;;9.46;66.29
69027;BME280;56080;47.594;19.116;2023-02-22T20:54:19;100269;;;9.13;66.24
69027;BME280;56080;47.594;19.116;2023-02-22T21:04:21;100272;;;9.15;66.22
69027;BME280;56080;47.594;19.116;2023-02-22T21:14:24;100282;;;9.25;66.53
69027;BME280;56080;47.594;19.116;2023-02-22T21:24:24;100279;;;9.09;67.45
69027;BME280;56080;47.594;19.116;2023-02-22T21:44:22;100277;;;9.04;67.49
69027;BME280;56080;47.594;19.116;2023-02-22T21:54:23;100288;;;9.10;66.61
69027;BME280;56080;47.594;19.116;2023-02-22T22:04:25;100281;;;9.06;66.76
69027;BME280;56080;47.594;19.116;2023-02-22T22:14:24;100284;;;8.95;67.07
69027;BME280;56080;47.594;19.116;2023-02-22T22:24:25;100281;;;8.95;66.76
69027;BME280;56080;47.594;19.116;2023-02-22T22:34:28;100287;;;8.97;67.58
69027;BME280;56080;47.594;19.116;2023-02-22T22:44:31;100283;;;8.69;67.00
69027;BME280;56080;47.594;19.116;2023-02-22T22:54:27;100282;;;8.74;67.93
69027;BME280;56080;47.594;19.116;2023-02-22T23:04:27;100287;;;8.73;68.08
69027;BME280;56080;47.594;19.116;2023-02-22T23:14:30;100296;;;8.65;67.70
69027;BME280;56080;47.594;19.116;2023-02-22T23:24:29;100299;;;8.58;68.12
69027;BME280;56080;47.594;19.116;2023-02-22T23:34:29;100295;;;8.37;69.05
69027;BME280;56080;47.594;19.116;2023-02-22T23:44:30;100296;;;8.35;69.33
69027;BME280;56080;47.594;19.116;2023-02-22T23:54:35;100304;;;8.31;69.88
